createdAt,value
2018-05-31T00:00:56.509Z,47.10
2018-05-31T00:01:56.524Z,46.40
2018-05-31T00:02:56.546Z,45.30
2018-05-31T00:03:56.567Z,43.40
2018-05-31T00:04:56.671Z,45.00
2018-05-31T00:05:56.593Z,46.20
2018-05-31T00:06:56.596Z,44.00
2018-05-31T00:07:56.617Z,44.80
2018-05-31T00:08:56.620Z,48.20
2018-05-31T00:09:56.749Z,47.40
2018-05-31T00:10:56.639Z,50.60
2018-05-31T00:11:56.651Z,50.80
2018-05-31T00:12:56.662Z,48.10
2018-05-31T00:13:56.696Z,52.50
2018-05-31T00:14:56.902Z,47.50
2018-05-31T00:15:56.695Z,47.00
2018-05-31T00:16:56.712Z,48.50
2018-05-31T00:17:56.734Z,50.50
2018-05-31T00:18:56.756Z,49.00
2018-05-31T00:19:56.862Z,49.70
2018-05-31T00:20:56.761Z,49.00
2018-05-31T00:21:56.772Z,50.90
2018-05-31T00:22:56.804Z,53.80
2018-05-31T00:23:56.817Z,56.40
2018-05-31T00:24:56.907Z,57.50
2018-05-31T00:25:56.822Z,57.10
2018-05-31T00:26:56.840Z,55.40
2018-05-31T00:27:56.866Z,54.50
2018-05-31T00:28:56.857Z,50.70
2018-05-31T00:29:57.377Z,52.60
2018-05-31T00:30:56.886Z,52.60
2018-05-31T00:31:56.906Z,53.60
2018-05-31T00:32:56.910Z,52.20
2018-05-31T00:33:56.945Z,52.40
2018-05-31T00:34:57.054Z,50.70
2018-05-31T00:35:56.950Z,50.30
2018-05-31T00:36:56.983Z,50.20
2018-05-31T00:37:56.994Z,53.20
2018-05-31T00:38:56.980Z,55.50
2018-05-31T00:39:57.193Z,55.30
2018-05-31T00:40:57.027Z,53.70
2018-05-31T00:41:57.024Z,54.40
2018-05-31T00:42:57.056Z,59.30
2018-05-31T00:43:57.059Z,56.20
2018-05-31T00:44:57.170Z,54.40
2018-05-31T00:45:57.089Z,55.20
2018-05-31T00:46:57.102Z,53.80
2018-05-31T00:47:57.099Z,55.10
2018-05-31T00:48:57.119Z,51.40
2018-05-31T00:49:57.340Z,52.00
2018-05-31T00:50:57.155Z,54.70
2018-05-31T00:51:57.146Z,52.70
2018-05-31T00:52:57.179Z,52.80
2018-05-31T00:53:57.188Z,51.10
2018-05-31T00:54:57.342Z,52.70
2018-05-31T00:55:57.190Z,52.80
2018-05-31T00:56:57.218Z,51.70
2018-05-31T00:57:57.234Z,50.30
2018-05-31T00:58:57.240Z,50.00
2018-05-31T00:59:57.739Z,55.50
2018-05-31T01:00:57.281Z,51.30
2018-05-31T01:01:57.277Z,48.40
2018-05-31T01:02:57.287Z,49.30
2018-05-31T01:03:57.312Z,50.40
2018-05-31T01:04:57.512Z,49.10
2018-05-31T01:05:57.326Z,51.10
2018-05-31T01:06:57.348Z,50.40
2018-05-31T01:07:57.350Z,53.10
2018-05-31T01:08:57.351Z,54.00
2018-05-31T01:09:57.376Z,55.10
2018-05-31T01:10:57.473Z,59.40
2018-05-31T01:11:57.410Z,54.60
2018-05-31T01:12:57.420Z,53.80
2018-05-31T01:13:57.432Z,55.40
2018-05-31T01:14:57.441Z,58.10
2018-05-31T01:15:57.458Z,55.60
2018-05-31T01:16:57.573Z,53.80
2018-05-31T01:17:57.466Z,55.60
2018-05-31T01:18:57.496Z,54.90
2018-05-31T01:19:57.511Z,56.00
2018-05-31T01:20:57.523Z,58.00
2018-05-31T01:21:57.609Z,58.00
2018-05-31T01:22:57.521Z,56.00
2018-05-31T01:23:57.552Z,55.90
2018-05-31T01:24:57.546Z,56.60
2018-05-31T01:25:57.567Z,58.90
2018-05-31T01:26:57.795Z,61.00
2018-05-31T01:27:57.579Z,61.80
2018-05-31T01:28:57.594Z,67.70
2018-05-31T01:29:57.647Z,75.90
2018-05-31T01:30:57.636Z,73.10
2018-05-31T01:31:57.638Z,79.70
2018-05-31T01:32:57.839Z,78.80
2018-05-31T01:33:57.678Z,74.40
2018-05-31T01:34:57.693Z,78.70
2018-05-31T01:35:57.694Z,80.00
2018-05-31T01:36:57.715Z,76.90
2018-05-31T01:37:58.074Z,77.10
2018-05-31T01:38:57.714Z,80.10
2018-05-31T01:39:57.738Z,79.70
2018-05-31T01:40:57.750Z,81.60
2018-05-31T01:41:57.752Z,77.90
2018-05-31T01:42:57.878Z,76.80
2018-05-31T01:43:57.791Z,73.40
2018-05-31T01:44:57.798Z,76.00
2018-05-31T01:45:57.795Z,75.30
2018-05-31T01:46:57.828Z,75.70
2018-05-31T01:47:58.040Z,73.30
2018-05-31T01:48:57.856Z,75.50
2018-05-31T01:49:57.854Z,83.20
2018-05-31T01:50:57.860Z,78.50
2018-05-31T01:51:57.891Z,77.90
2018-05-31T01:52:58.079Z,77.20
2018-05-31T01:53:57.903Z,77.10
2018-05-31T01:54:57.907Z,75.20
2018-05-31T01:55:57.919Z,76.60
2018-05-31T01:56:57.937Z,74.00
2018-05-31T01:57:58.163Z,78.80
2018-05-31T01:58:57.967Z,74.60
2018-05-31T01:59:57.993Z,80.90
2018-05-31T02:00:57.995Z,75.50
2018-05-31T02:01:58.000Z,74.90
2018-05-31T02:02:58.217Z,75.10
2018-05-31T02:03:58.021Z,77.20
2018-05-31T02:04:58.022Z,76.80
2018-05-31T02:05:58.051Z,77.00
2018-05-31T02:06:58.069Z,79.40
2018-05-31T02:07:58.264Z,75.70
2018-05-31T02:08:58.080Z,75.10
2018-05-31T02:09:58.085Z,76.70
2018-05-31T02:10:58.112Z,78.20
2018-05-31T02:11:58.105Z,80.70
2018-05-31T02:12:58.228Z,78.60
2018-05-31T02:13:58.141Z,75.50
2018-05-31T02:14:58.168Z,76.00
2018-05-31T02:15:58.150Z,75.20
2018-05-31T02:16:58.183Z,77.70
2018-05-31T02:17:58.395Z,75.50
2018-05-31T02:18:58.185Z,72.00
2018-05-31T02:19:58.207Z,74.00
2018-05-31T02:20:58.232Z,74.00
2018-05-31T02:21:58.246Z,75.00
2018-05-31T02:22:58.250Z,74.60
2018-05-31T02:23:58.442Z,77.30
2018-05-31T02:24:58.256Z,76.60
2018-05-31T02:25:58.289Z,82.60
2018-05-31T02:26:58.291Z,85.10
2018-05-31T02:27:58.295Z,83.80
2018-05-31T02:28:58.418Z,87.60
2018-05-31T02:29:58.315Z,83.00
2018-05-31T02:30:58.347Z,81.50
2018-05-31T02:31:58.357Z,85.00
2018-05-31T02:32:58.349Z,88.40
2018-05-31T02:33:58.579Z,90.30
2018-05-31T02:34:58.399Z,92.30
2018-05-31T02:35:58.396Z,93.50
2018-05-31T02:36:58.408Z,93.30
2018-05-31T02:37:58.433Z,91.70
2018-05-31T02:38:58.441Z,92.90
2018-05-31T02:39:58.644Z,96.00
2018-05-31T02:40:58.448Z,94.60
2018-05-31T02:41:58.466Z,96.60
2018-05-31T02:42:58.488Z,94.30
2018-05-31T02:43:58.493Z,93.70
2018-05-31T02:44:58.706Z,98.10
2018-05-31T02:45:58.512Z,96.50
2018-05-31T02:46:58.534Z,98.70
2018-05-31T02:47:58.524Z,94.90
2018-05-31T02:48:58.537Z,97.30
2018-05-31T02:49:58.754Z,93.40
2018-05-31T02:50:58.562Z,91.30
2018-05-31T02:51:58.569Z,96.10
2018-05-31T02:52:58.600Z,91.90
2018-05-31T02:53:58.599Z,105.60
2018-05-31T02:54:58.630Z,94.40
2018-05-31T02:55:58.723Z,98.70
2018-05-31T02:56:58.640Z,101.60
2018-05-31T02:57:58.644Z,98.20
2018-05-31T02:58:58.654Z,98.50
2018-05-31T02:59:58.684Z,101.20
2018-05-31T03:00:58.897Z,99.20
2018-05-31T03:01:58.697Z,97.50
2018-05-31T03:02:58.710Z,91.40
2018-05-31T03:03:58.736Z,92.60
2018-05-31T03:04:58.732Z,93.80
2018-05-31T03:05:58.855Z,90.50
2018-05-31T03:06:58.750Z,97.30
2018-05-31T03:07:58.757Z,99.40
2018-05-31T03:08:58.773Z,95.80
2018-05-31T03:09:58.792Z,100.10
2018-05-31T03:10:58.912Z,103.30
2018-05-31T03:11:58.822Z,102.00
2018-05-31T03:12:58.840Z,108.10
2018-05-31T03:13:58.851Z,101.80
2018-05-31T03:14:58.852Z,101.20
2018-05-31T03:15:59.074Z,97.90
2018-05-31T03:16:58.886Z,95.30
2018-05-31T03:17:58.897Z,96.70
2018-05-31T03:18:58.902Z,90.70
2018-05-31T03:19:59.028Z,91.40
2018-05-31T03:20:59.128Z,90.10
2018-05-31T03:21:58.932Z,90.10
2018-05-31T03:22:58.951Z,88.90
2018-05-31T03:23:58.947Z,95.70
2018-05-31T03:24:58.972Z,91.90
2018-05-31T03:25:59.065Z,93.90
2018-05-31T03:26:58.990Z,88.90
2018-05-31T03:27:59.008Z,91.50
2018-05-31T03:28:59.010Z,88.50
2018-05-31T03:29:59.015Z,89.80
2018-05-31T03:30:59.119Z,96.90
2018-05-31T03:31:59.059Z,91.40
2018-05-31T03:32:59.065Z,97.80
2018-05-31T03:33:59.058Z,99.50
2018-05-31T03:34:59.079Z,98.00
2018-05-31T03:35:59.180Z,96.50
2018-05-31T03:36:59.104Z,96.10
2018-05-31T03:37:59.127Z,103.20
2018-05-31T03:38:59.117Z,113.60
2018-05-31T03:39:59.145Z,118.90
2018-05-31T03:40:59.261Z,131.60
2018-05-31T03:41:59.173Z,160.80
2018-05-31T03:42:59.178Z,161.80
2018-05-31T03:43:59.168Z,149.70
2018-05-31T03:44:59.192Z,148.30
2018-05-31T03:45:59.290Z,141.80
2018-05-31T03:46:59.224Z,142.70
2018-05-31T03:47:59.232Z,138.60
2018-05-31T03:48:59.228Z,137.10
2018-05-31T03:49:59.249Z,141.60
2018-05-31T03:50:59.370Z,130.90
2018-05-31T03:51:59.265Z,123.20
2018-05-31T03:52:59.293Z,119.10
2018-05-31T03:53:59.304Z,115.60
2018-05-31T03:54:59.322Z,120.10
2018-05-31T03:55:59.405Z,119.00
2018-05-31T03:56:59.341Z,109.60
2018-05-31T03:57:59.333Z,105.20
2018-05-31T03:58:59.365Z,102.30
2018-05-31T03:59:59.349Z,92.90
2018-05-31T04:00:59.487Z,88.90
2018-05-31T04:01:59.404Z,102.90
2018-05-31T04:02:59.400Z,92.70
2018-05-31T04:03:59.417Z,91.60
2018-05-31T04:04:59.412Z,87.00
2018-05-31T04:05:59.738Z,89.00
2018-05-31T04:06:59.435Z,89.50
2018-05-31T04:07:59.462Z,85.00
2018-05-31T04:08:59.451Z,86.10
2018-05-31T04:09:59.484Z,85.40
2018-05-31T04:10:59.491Z,82.80
2018-05-31T04:11:59.589Z,80.30
2018-05-31T04:12:59.573Z,81.70
2018-05-31T04:13:59.522Z,75.50
2018-05-31T04:14:59.544Z,79.60
2018-05-31T04:15:59.543Z,80.20
2018-05-31T04:16:59.668Z,79.00
2018-05-31T04:17:59.553Z,76.70
2018-05-31T04:18:59.592Z,81.70
2018-05-31T04:19:59.601Z,81.00
2018-05-31T04:20:59.592Z,78.90
2018-05-31T04:21:59.604Z,77.40
2018-05-31T04:22:59.722Z,79.30
2018-05-31T04:23:59.632Z,76.30
2018-05-31T04:24:59.651Z,76.60
2018-05-31T04:25:59.656Z,76.10
2018-05-31T04:26:59.677Z,74.90
2018-05-31T04:27:59.787Z,77.70
2018-05-31T04:28:59.709Z,80.20
2018-05-31T04:29:59.707Z,78.20
2018-05-31T04:30:59.715Z,80.10
2018-05-31T04:31:59.716Z,80.40
2018-05-31T04:32:59.836Z,82.10
2018-05-31T04:33:59.755Z,77.30
2018-05-31T04:34:59.744Z,76.80
2018-05-31T04:35:59.767Z,77.60
2018-05-31T04:36:59.793Z,78.50
2018-05-31T04:37:59.799Z,72.90
2018-05-31T04:39:00.013Z,73.30
2018-05-31T04:39:59.812Z,72.40
2018-05-31T04:40:59.829Z,75.30
2018-05-31T04:41:59.848Z,78.90
2018-05-31T04:42:59.841Z,75.40
2018-05-31T04:43:59.944Z,73.10
2018-05-31T04:44:59.855Z,75.00
2018-05-31T04:45:59.872Z,74.10
2018-05-31T04:46:59.880Z,74.80
2018-05-31T04:47:59.895Z,75.00
2018-05-31T04:49:00.015Z,73.70
2018-05-31T04:49:59.915Z,76.50
2018-05-31T04:50:59.930Z,72.60
2018-05-31T04:51:59.955Z,72.30
2018-05-31T04:52:59.956Z,63.70
2018-05-31T04:54:00.080Z,66.10
2018-05-31T04:54:59.968Z,67.30
2018-05-31T04:55:59.999Z,64.30
2018-05-31T04:57:00.002Z,72.10
2018-05-31T04:58:00.005Z,72.60
2018-05-31T04:59:00.112Z,69.00
2018-05-31T05:00:00.048Z,76.60
2018-05-31T05:01:00.045Z,71.00
2018-05-31T05:02:00.050Z,75.30
2018-05-31T05:03:00.138Z,74.70
2018-05-31T05:04:00.165Z,75.30
2018-05-31T05:05:00.099Z,71.90
2018-05-31T05:06:00.094Z,69.10
2018-05-31T05:07:00.102Z,77.80
2018-05-31T05:08:00.110Z,86.40
2018-05-31T05:09:00.243Z,88.50
2018-05-31T05:10:00.131Z,84.70
2018-05-31T05:11:00.156Z,80.90
2018-05-31T05:12:00.168Z,86.80
2018-05-31T05:13:00.187Z,84.50
2018-05-31T05:14:00.289Z,83.90
2018-05-31T05:15:00.189Z,78.00
2018-05-31T05:16:00.210Z,83.10
2018-05-31T05:17:00.214Z,76.40
2018-05-31T05:18:00.223Z,85.90
2018-05-31T05:19:00.347Z,81.30
2018-05-31T05:20:00.264Z,94.20
2018-05-31T05:21:00.265Z,77.00
2018-05-31T05:22:00.275Z,76.90
2018-05-31T05:23:00.299Z,78.10
2018-05-31T05:24:00.389Z,81.40
2018-05-31T05:25:00.294Z,87.80
2018-05-31T05:26:00.312Z,79.40
2018-05-31T05:27:00.318Z,75.80
2018-05-31T05:28:00.332Z,82.00
2018-05-31T05:29:00.469Z,79.30
2018-05-31T05:30:00.371Z,81.70
2018-05-31T05:31:00.376Z,74.60
2018-05-31T05:32:00.373Z,75.60
2018-05-31T05:33:00.395Z,87.10
2018-05-31T05:34:00.408Z,81.90
2018-05-31T05:35:00.528Z,86.60
2018-05-31T05:36:00.430Z,78.00
2018-05-31T05:37:00.440Z,83.60
2018-05-31T05:38:00.459Z,77.10
2018-05-31T05:39:00.458Z,82.20
2018-05-31T05:40:00.562Z,88.30
2018-05-31T05:41:00.482Z,76.80
2018-05-31T05:42:00.499Z,74.90
2018-05-31T05:43:00.516Z,80.20
2018-05-31T05:44:00.519Z,71.10
2018-05-31T05:45:00.524Z,75.40
2018-05-31T05:46:00.646Z,69.00
2018-05-31T05:47:00.548Z,64.40
2018-05-31T05:48:00.566Z,70.70
2018-05-31T05:49:00.584Z,77.10
2018-05-31T05:50:00.582Z,67.40
2018-05-31T05:51:00.697Z,68.40
2018-05-31T05:52:00.602Z,70.70
2018-05-31T05:53:00.597Z,68.60
2018-05-31T05:54:00.634Z,64.70
2018-05-31T05:55:00.638Z,68.40
2018-05-31T05:56:00.642Z,69.50
2018-05-31T05:57:00.875Z,71.20
2018-05-31T05:58:00.676Z,64.60
2018-05-31T05:59:00.670Z,71.80
2018-05-31T06:00:00.681Z,64.70
2018-05-31T06:01:00.689Z,72.50
2018-05-31T06:02:00.807Z,74.70
2018-05-31T06:03:00.728Z,77.50
2018-05-31T06:04:00.728Z,69.90
2018-05-31T06:05:00.749Z,67.60
2018-05-31T06:06:00.759Z,76.30
2018-05-31T06:07:00.862Z,70.20
2018-05-31T06:09:00.781Z,69.10
2018-05-31T06:10:00.786Z,68.40
2018-05-31T06:11:00.817Z,68.90
2018-05-31T06:12:00.913Z,68.60
2018-05-31T06:13:00.946Z,72.50
2018-05-31T06:14:00.823Z,63.30
2018-05-31T06:15:00.847Z,64.20
2018-05-31T06:16:00.858Z,67.40
2018-05-31T06:17:00.971Z,68.60
2018-05-31T06:18:00.869Z,70.90
2018-05-31T06:19:00.924Z,71.40
2018-05-31T06:20:00.898Z,69.20
2018-05-31T06:21:00.909Z,67.00
2018-05-31T06:22:01.007Z,69.40
2018-05-31T06:23:00.925Z,64.90
2018-05-31T06:24:00.955Z,64.60
2018-05-31T06:25:00.957Z,68.80
2018-05-31T06:26:00.949Z,64.80
2018-05-31T06:27:01.062Z,65.50
2018-05-31T06:28:00.986Z,62.00
2018-05-31T06:29:01.005Z,57.60
2018-05-31T06:30:01.007Z,62.10
2018-05-31T06:31:01.004Z,62.20
2018-05-31T06:32:01.127Z,61.70
2018-05-31T06:33:01.024Z,59.90
2018-05-31T06:34:01.035Z,63.60
2018-05-31T06:35:01.045Z,59.10
2018-05-31T06:36:01.055Z,59.20
2018-05-31T06:37:01.238Z,62.90
2018-05-31T06:38:01.089Z,59.90
2018-05-31T06:39:01.113Z,60.60
2018-05-31T06:40:01.119Z,58.00
2018-05-31T06:41:01.138Z,56.90
2018-05-31T06:42:01.241Z,60.80
2018-05-31T06:43:01.167Z,59.80
2018-05-31T06:44:01.170Z,58.90
2018-05-31T06:45:01.168Z,61.00
2018-05-31T06:46:01.183Z,61.00
2018-05-31T06:47:01.291Z,60.10
2018-05-31T06:48:01.185Z,60.70
2018-05-31T06:49:01.214Z,58.90
2018-05-31T06:50:01.245Z,64.40
2018-05-31T06:51:01.241Z,58.20
2018-05-31T06:52:01.247Z,60.60
2018-05-31T06:53:01.354Z,61.20
2018-05-31T06:54:01.261Z,60.80
2018-05-31T06:55:01.282Z,58.60
2018-05-31T06:56:01.278Z,60.80
2018-05-31T06:57:01.283Z,59.60
2018-05-31T06:58:01.403Z,58.50
2018-05-31T06:59:01.325Z,56.70
2018-05-31T07:00:01.324Z,58.30
2018-05-31T07:01:01.321Z,59.40
2018-05-31T07:02:01.330Z,60.60
2018-05-31T07:03:01.463Z,61.30
2018-05-31T07:04:01.363Z,62.50
2018-05-31T07:05:01.377Z,59.90
2018-05-31T07:06:01.393Z,57.00
2018-05-31T07:07:01.397Z,58.60
2018-05-31T07:08:01.512Z,60.10
2018-05-31T07:09:01.416Z,60.20
2018-05-31T07:10:01.419Z,59.10
2018-05-31T07:11:01.445Z,57.20
2018-05-31T07:12:01.453Z,59.80
2018-05-31T07:13:01.820Z,58.10
2018-05-31T07:14:01.469Z,59.20
2018-05-31T07:15:01.489Z,58.70
2018-05-31T07:16:01.503Z,59.50
2018-05-31T07:17:01.501Z,56.10
2018-05-31T07:18:01.600Z,62.00
2018-05-31T07:19:01.516Z,57.80
2018-05-31T07:20:01.533Z,55.10
2018-05-31T07:21:01.554Z,57.40
2018-05-31T07:22:01.538Z,57.50
2018-05-31T07:23:01.664Z,57.60
2018-05-31T07:24:01.585Z,55.60
2018-05-31T07:25:01.571Z,55.60
2018-05-31T07:26:01.604Z,53.60
2018-05-31T07:27:01.598Z,54.50
2018-05-31T07:28:01.608Z,55.70
2018-05-31T07:29:01.718Z,55.60
2018-05-31T07:30:01.626Z,54.00
2018-05-31T07:31:01.653Z,56.20
2018-05-31T07:32:01.666Z,57.00
2018-05-31T07:33:01.655Z,58.30
2018-05-31T07:34:01.787Z,57.30
2018-05-31T07:35:01.677Z,56.70
2018-05-31T07:36:01.688Z,53.30
2018-05-31T07:37:01.702Z,57.60
2018-05-31T07:38:01.714Z,52.60
2018-05-31T07:39:01.730Z,50.10
2018-05-31T07:40:01.849Z,54.60
2018-05-31T07:41:01.765Z,52.40
2018-05-31T07:42:01.781Z,52.30
2018-05-31T07:43:01.761Z,52.90
2018-05-31T07:44:01.795Z,55.10
2018-05-31T07:45:01.948Z,51.80
2018-05-31T07:46:01.804Z,55.00
2018-05-31T07:47:01.820Z,52.70
2018-05-31T07:48:01.825Z,54.00
2018-05-31T07:49:01.841Z,51.20
2018-05-31T07:50:01.935Z,47.30
2018-05-31T07:51:01.847Z,48.20
2018-05-31T07:52:01.872Z,53.70
2018-05-31T07:53:01.873Z,50.60
2018-05-31T07:54:01.895Z,53.50
2018-05-31T07:55:02.237Z,49.40
2018-05-31T07:56:01.900Z,50.60
2018-05-31T07:57:01.904Z,48.40
2018-05-31T07:58:01.945Z,53.70
2018-05-31T07:59:01.936Z,54.30
2018-05-31T08:00:02.060Z,48.60
2018-05-31T08:01:01.945Z,53.80
2018-05-31T08:02:01.970Z,51.80
2018-05-31T08:03:01.969Z,53.20
2018-05-31T08:04:01.981Z,54.00
2018-05-31T08:05:02.109Z,52.90
2018-05-31T08:06:02.004Z,53.90
2018-05-31T08:07:02.016Z,46.00
2018-05-31T08:08:02.023Z,53.90
2018-05-31T08:09:02.029Z,50.40
2018-05-31T08:10:02.166Z,52.50
2018-05-31T08:11:02.053Z,53.30
2018-05-31T08:12:02.083Z,53.60
2018-05-31T08:13:02.075Z,53.20
2018-05-31T08:14:02.078Z,57.80
2018-05-31T08:15:02.220Z,55.20
2018-05-31T08:16:02.128Z,53.20
2018-05-31T08:17:02.134Z,58.60
2018-05-31T08:18:02.143Z,55.60
2018-05-31T08:19:02.144Z,58.20
2018-05-31T08:20:02.243Z,63.10
2018-05-31T08:21:02.166Z,60.00
2018-05-31T08:22:02.188Z,60.80
2018-05-31T08:23:02.199Z,59.00
2018-05-31T08:24:02.191Z,59.40
2018-05-31T08:25:02.315Z,59.00
2018-05-31T08:26:02.205Z,61.90
2018-05-31T08:27:02.228Z,60.60
2018-05-31T08:28:02.226Z,56.90
2018-05-31T08:29:02.247Z,61.20
2018-05-31T08:30:02.350Z,55.00
2018-05-31T08:31:02.262Z,55.50
2018-05-31T08:32:02.289Z,57.50
2018-05-31T08:33:02.308Z,58.80
2018-05-31T08:34:02.295Z,54.50
2018-05-31T08:35:02.409Z,57.30
2018-05-31T08:36:02.335Z,58.70
2018-05-31T08:37:02.341Z,56.60
2018-05-31T08:38:02.328Z,54.00
2018-05-31T08:39:02.344Z,58.60
2018-05-31T08:40:02.468Z,60.90
2018-05-31T08:41:02.369Z,60.70
2018-05-31T08:42:02.367Z,62.00
2018-05-31T08:43:02.382Z,58.30
2018-05-31T08:44:02.399Z,57.80
2018-05-31T08:45:02.515Z,55.30
2018-05-31T08:46:02.414Z,52.80
2018-05-31T08:47:02.419Z,55.00
2018-05-31T08:48:02.434Z,54.90
2018-05-31T08:49:02.464Z,55.40
2018-05-31T08:50:02.564Z,57.40
2018-05-31T08:51:02.518Z,56.30
2018-05-31T08:52:02.471Z,56.50
2018-05-31T08:53:02.501Z,60.70
2018-05-31T08:54:02.496Z,55.60
2018-05-31T08:55:02.603Z,56.90
2018-05-31T08:56:02.515Z,57.10
2018-05-31T08:57:02.541Z,57.50
2018-05-31T08:58:02.544Z,57.60
2018-05-31T08:59:02.565Z,55.40
2018-05-31T09:00:02.659Z,55.30
2018-05-31T09:01:02.574Z,56.40
2018-05-31T09:02:02.595Z,59.60
2018-05-31T09:03:02.592Z,53.00
2018-05-31T09:04:02.602Z,52.40
2018-05-31T09:05:02.607Z,55.50
2018-05-31T09:06:02.737Z,56.10
2018-05-31T09:07:02.637Z,54.60
2018-05-31T09:08:02.653Z,54.20
2018-05-31T09:09:02.656Z,54.00
2018-05-31T09:10:02.655Z,50.70
2018-05-31T09:11:02.765Z,53.20
2018-05-31T09:12:02.694Z,51.80
2018-05-31T09:13:02.698Z,52.80
2018-05-31T09:14:02.712Z,51.40
2018-05-31T09:15:02.715Z,51.70
2018-05-31T09:16:02.814Z,53.50
2018-05-31T09:17:02.724Z,50.40
2018-05-31T09:18:02.745Z,52.10
2018-05-31T09:19:02.774Z,51.70
2018-05-31T09:20:02.753Z,56.00
2018-05-31T09:21:03.021Z,54.00
2018-05-31T09:22:02.798Z,53.60
2018-05-31T09:23:02.806Z,52.00
2018-05-31T09:24:02.800Z,54.60
2018-05-31T09:25:02.808Z,57.30
2018-05-31T09:26:02.942Z,58.60
2018-05-31T09:27:02.831Z,58.10
2018-05-31T09:28:02.844Z,58.60
2018-05-31T09:29:02.869Z,55.50
2018-05-31T09:30:02.871Z,64.70
2018-05-31T09:31:03.087Z,57.50
2018-05-31T09:32:02.889Z,58.90
2018-05-31T09:33:02.887Z,57.80
2018-05-31T09:34:02.916Z,57.90
2018-05-31T09:35:02.932Z,57.60
2018-05-31T09:36:03.117Z,58.70
2018-05-31T09:37:02.941Z,59.10
2018-05-31T09:38:02.955Z,57.90
2018-05-31T09:39:02.973Z,56.40
2018-05-31T09:40:02.955Z,56.60
2018-05-31T09:41:03.192Z,58.00
2018-05-31T09:42:03.000Z,54.70
2018-05-31T09:43:02.988Z,53.30
2018-05-31T09:44:03.003Z,53.50
2018-05-31T09:45:03.030Z,50.40
2018-05-31T09:46:03.221Z,51.20
2018-05-31T09:47:03.030Z,59.90
2018-05-31T09:48:03.040Z,55.30
2018-05-31T09:49:03.055Z,60.00
2018-05-31T09:50:03.060Z,62.20
2018-05-31T09:51:03.289Z,56.90
2018-05-31T09:52:03.081Z,57.90
2018-05-31T09:53:03.091Z,51.00
2018-05-31T09:54:03.112Z,57.00
2018-05-31T09:55:03.130Z,57.70
2018-05-31T09:56:03.246Z,58.20
2018-05-31T09:57:03.148Z,52.40
2018-05-31T09:58:03.150Z,68.70
2018-05-31T09:59:03.164Z,61.70
2018-05-31T10:00:03.179Z,64.70
2018-05-31T10:01:03.399Z,66.50
2018-05-31T10:02:03.201Z,60.70
2018-05-31T10:03:03.205Z,62.60
2018-05-31T10:04:03.205Z,59.30
2018-05-31T10:05:03.228Z,64.40
2018-05-31T10:06:03.328Z,62.30
2018-05-31T10:07:03.257Z,58.90
2018-05-31T10:08:03.248Z,59.90
2018-05-31T10:09:03.275Z,55.90
2018-05-31T10:10:03.264Z,58.00
2018-05-31T10:11:03.547Z,59.80
2018-05-31T10:12:03.285Z,58.20
2018-05-31T10:13:03.297Z,58.10
2018-05-31T10:14:03.318Z,61.50
2018-05-31T10:15:03.335Z,64.40
2018-05-31T10:16:03.426Z,63.60
2018-05-31T10:17:03.361Z,61.30
2018-05-31T10:18:03.363Z,63.30
2018-05-31T10:19:03.377Z,62.50
2018-05-31T10:20:03.381Z,54.90
2018-05-31T10:21:03.482Z,55.70
2018-05-31T10:22:03.416Z,46.70
2018-05-31T10:23:03.415Z,49.30
2018-05-31T10:24:03.416Z,45.60
2018-05-31T10:25:03.443Z,44.80
2018-05-31T10:26:03.538Z,42.60
2018-05-31T10:27:03.450Z,44.00
2018-05-31T10:28:03.479Z,40.70
2018-05-31T10:29:03.473Z,36.20
2018-05-31T10:30:03.506Z,35.80
2018-05-31T10:31:03.714Z,39.00
2018-05-31T10:32:03.513Z,33.90
2018-05-31T10:33:03.540Z,31.40
2018-05-31T10:34:03.542Z,30.70
2018-05-31T10:35:03.550Z,27.30
2018-05-31T10:36:03.568Z,30.00
2018-05-31T10:37:03.690Z,30.10
2018-05-31T10:38:03.617Z,28.80
2018-05-31T10:39:03.605Z,25.90
2018-05-31T10:40:03.651Z,24.40
2018-05-31T10:41:03.637Z,22.30
2018-05-31T10:42:03.747Z,21.50
2018-05-31T10:43:03.682Z,21.50
2018-05-31T10:44:03.674Z,20.00
2018-05-31T10:45:03.689Z,20.30
2018-05-31T10:46:03.716Z,20.80
2018-05-31T10:47:03.721Z,20.80
2018-05-31T10:48:03.848Z,21.00
2018-05-31T10:49:03.756Z,20.50
2018-05-31T10:50:03.776Z,19.80
2018-05-31T10:51:03.793Z,19.90
2018-05-31T10:52:03.793Z,22.40
2018-05-31T10:53:03.916Z,22.90
2018-05-31T10:54:03.832Z,20.30
2018-05-31T10:55:03.867Z,22.70
2018-05-31T10:56:03.875Z,24.00
2018-05-31T10:57:03.895Z,25.70
2018-05-31T10:58:04.010Z,22.80
2018-05-31T10:59:03.921Z,22.00
2018-05-31T11:00:03.941Z,22.40
2018-05-31T11:01:03.944Z,21.90
2018-05-31T11:02:03.955Z,23.90
2018-05-31T11:03:04.097Z,22.90
2018-05-31T11:04:04.010Z,21.90
2018-05-31T11:05:04.027Z,22.40
2018-05-31T11:06:04.033Z,25.20
2018-05-31T11:07:04.061Z,22.60
2018-05-31T11:08:04.155Z,22.90
2018-05-31T11:09:04.092Z,21.70
2018-05-31T11:10:04.104Z,23.00
2018-05-31T11:11:04.120Z,23.20
2018-05-31T11:12:04.129Z,22.70
2018-05-31T11:13:04.257Z,23.40
2018-05-31T11:14:04.163Z,25.40
2018-05-31T11:15:04.200Z,24.50
2018-05-31T11:16:04.199Z,22.80
2018-05-31T11:17:04.219Z,23.60
2018-05-31T11:18:04.347Z,23.20
2018-05-31T11:19:04.250Z,22.90
2018-05-31T11:20:04.264Z,22.30
2018-05-31T11:21:04.294Z,23.70
2018-05-31T11:22:04.320Z,24.90
2018-05-31T11:23:04.435Z,25.60
2018-05-31T11:24:04.357Z,24.30
2018-05-31T11:25:04.369Z,25.00
2018-05-31T11:26:04.390Z,24.10
2018-05-31T11:27:04.414Z,24.40
2018-05-31T11:28:04.523Z,26.40
2018-05-31T11:29:04.430Z,29.20
2018-05-31T11:30:04.449Z,26.50
2018-05-31T11:31:04.601Z,27.90
2018-05-31T11:32:04.511Z,29.30
2018-05-31T11:33:04.610Z,29.00
2018-05-31T11:34:04.530Z,28.40
2018-05-31T11:35:04.545Z,29.30
2018-05-31T11:36:04.576Z,29.00
2018-05-31T11:37:04.583Z,29.70
2018-05-31T11:38:04.725Z,29.60
2018-05-31T11:39:04.625Z,29.80
2018-05-31T11:40:04.648Z,31.10
2018-05-31T11:41:04.663Z,31.40
2018-05-31T11:42:04.676Z,30.40
2018-05-31T11:43:04.823Z,31.60
2018-05-31T11:44:04.727Z,30.60
2018-05-31T11:45:04.758Z,31.40
2018-05-31T11:46:04.754Z,30.20
2018-05-31T11:47:04.789Z,32.10
2018-05-31T11:48:04.902Z,33.80
2018-05-31T11:49:04.828Z,32.80
2018-05-31T11:50:04.834Z,31.60
2018-05-31T11:51:04.869Z,30.80
2018-05-31T11:52:04.892Z,31.00
2018-05-31T11:53:04.999Z,33.00
2018-05-31T11:54:04.935Z,32.90
2018-05-31T11:55:04.946Z,33.70
2018-05-31T11:56:04.950Z,35.80
2018-05-31T11:57:04.993Z,35.10
2018-05-31T11:58:05.117Z,35.00
2018-05-31T11:59:05.031Z,35.00
2018-05-31T12:00:05.057Z,36.00
2018-05-31T12:01:05.080Z,36.20
2018-05-31T12:02:05.087Z,37.10
2018-05-31T12:03:05.193Z,40.00
2018-05-31T12:04:05.136Z,37.60
2018-05-31T12:05:05.154Z,39.00
2018-05-31T12:06:05.172Z,37.50
2018-05-31T12:07:05.175Z,38.10
2018-05-31T12:08:05.340Z,38.70
2018-05-31T12:09:05.232Z,37.90
2018-05-31T12:10:05.250Z,40.70
2018-05-31T12:11:05.254Z,38.20
2018-05-31T12:12:05.268Z,40.70
2018-05-31T12:13:05.406Z,39.70
2018-05-31T12:14:05.314Z,39.50
2018-05-31T12:15:05.329Z,38.60
2018-05-31T12:16:05.358Z,39.00
2018-05-31T12:17:05.369Z,37.70
2018-05-31T12:18:05.497Z,39.20
2018-05-31T12:19:05.425Z,39.20
2018-05-31T12:20:05.436Z,40.00
2018-05-31T12:21:05.454Z,39.10
2018-05-31T12:22:05.486Z,39.70
2018-05-31T12:23:05.579Z,39.30
2018-05-31T12:24:05.524Z,39.70
2018-05-31T12:25:05.516Z,40.30
2018-05-31T12:26:05.542Z,38.20
2018-05-31T12:27:05.560Z,40.70
2018-05-31T12:28:05.592Z,42.20
2018-05-31T12:29:05.695Z,44.40
2018-05-31T12:30:05.631Z,40.30
2018-05-31T12:31:05.637Z,43.90
2018-05-31T12:32:05.673Z,41.30
2018-05-31T12:33:05.672Z,43.60
2018-05-31T12:34:05.799Z,42.00
2018-05-31T12:35:05.707Z,45.30
2018-05-31T12:36:05.750Z,42.50
2018-05-31T12:37:05.769Z,43.60
2018-05-31T12:38:05.788Z,44.50
2018-05-31T12:39:05.814Z,43.60
2018-05-31T12:40:06.056Z,46.70
2018-05-31T12:41:05.844Z,44.80
2018-05-31T12:42:05.850Z,46.00
2018-05-31T12:43:05.877Z,45.80
2018-05-31T12:44:05.891Z,42.80
2018-05-31T12:45:05.995Z,44.10
2018-05-31T12:46:05.927Z,46.10
2018-05-31T12:47:05.944Z,46.50
2018-05-31T12:48:05.969Z,46.20
2018-05-31T12:49:05.979Z,45.70
2018-05-31T12:50:06.187Z,46.50
2018-05-31T12:51:06.014Z,43.40
2018-05-31T12:52:06.047Z,45.50
2018-05-31T12:53:06.062Z,45.60